createdAt,value
2024-01-11T00:01:39.585Z,70.40
2024-01-11T00:04:08.241Z,68.17
2024-01-11T00:06:43.726Z,73.60
2024-01-11T00:09:14.131Z,61.50
2024-01-11T00:11:43.180Z,66.07
2024-01-11T00:14:12.205Z,63.90
2024-01-11T00:19:28.293Z,73.20
2024-01-11T00:21:57.045Z,75.07
2024-01-11T00:24:27.171Z,68.73
2024-01-11T00:26:55.794Z,64.93
2024-01-11T00:29:24.428Z,69.47
2024-01-11T00:31:53.113Z,67.73
2024-01-11T00:34:22.928Z,69.67
2024-01-11T00:36:51.914Z,68.13
2024-01-11T00:39:20.504Z,70.47
2024-01-11T00:41:50.565Z,70.00
2024-01-11T00:44:19.311Z,67.63
2024-01-11T00:46:47.973Z,67.27
2024-01-11T00:49:16.668Z,68.17
2024-01-11T00:51:45.392Z,63.73
2024-01-11T00:54:14.003Z,63.20
2024-01-11T00:56:42.670Z,65.90
2024-01-11T00:59:12.826Z,68.40
2024-01-11T01:01:41.500Z,72.83
2024-01-11T01:04:10.336Z,65.83
2024-01-11T01:06:39.081Z,59.53
2024-01-11T01:09:07.718Z,58.57
2024-01-11T01:11:36.593Z,62.73
2024-01-11T01:14:05.450Z,69.47
2024-01-11T01:16:35.758Z,64.20
2024-01-11T01:19:04.515Z,64.17
2024-01-11T01:21:33.341Z,66.37
2024-01-11T01:24:02.012Z,62.27
2024-01-11T01:26:30.647Z,69.30
2024-01-11T01:28:59.434Z,63.73
2024-01-11T01:31:28.072Z,65.37
2024-01-11T01:33:58.198Z,65.57
2024-01-11T01:36:26.899Z,60.13
2024-01-11T01:38:55.511Z,64.83
2024-01-11T01:41:24.314Z,67.00
2024-01-11T01:43:53.179Z,66.93
2024-01-11T01:46:26.429Z,69.57
2024-01-11T01:48:56.147Z,62.47
2024-01-11T01:51:29.423Z,72.97
2024-01-11T01:53:59.562Z,64.33
2024-01-11T01:56:29.510Z,64.73
2024-01-11T01:58:58.917Z,66.93
2024-01-11T02:01:28.913Z,67.57
2024-01-11T02:03:59.832Z,70.53
2024-01-11T02:06:33.695Z,64.43
2024-01-11T02:09:04.475Z,68.33
2024-01-11T02:11:33.874Z,71.03
2024-01-11T02:14:03.552Z,74.70
2024-01-11T02:16:33.978Z,71.03
2024-01-11T02:19:03.228Z,74.70
2024-01-11T02:21:34.669Z,74.57
2024-01-11T02:24:08.497Z,70.60
2024-01-11T02:26:37.489Z,77.97
2024-01-11T02:29:06.387Z,71.77
2024-01-11T02:31:35.032Z,70.03
2024-01-11T02:34:03.877Z,80.37
2024-01-11T02:36:32.836Z,73.00
2024-01-11T02:39:01.638Z,73.83
2024-01-11T02:41:32.226Z,73.93
2024-01-11T02:44:01.473Z,76.37
2024-01-11T02:46:33.214Z,76.60
2024-01-11T02:49:02.052Z,78.37
2024-01-11T02:51:30.864Z,81.00
2024-01-11T02:53:59.651Z,77.73
2024-01-11T02:56:28.455Z,78.93
2024-01-11T02:58:58.715Z,81.07
2024-01-11T03:01:27.464Z,79.17
2024-01-11T03:03:56.852Z,81.80
2024-01-11T03:06:25.582Z,71.50
2024-01-11T03:08:54.230Z,75.33
2024-01-11T03:11:22.959Z,72.77
2024-01-11T03:13:51.570Z,75.77
2024-01-11T03:16:21.669Z,78.97
2024-01-11T03:18:50.499Z,82.73
2024-01-11T03:21:19.530Z,76.23
2024-01-11T03:23:48.146Z,74.00
2024-01-11T03:26:17.139Z,78.93
2024-01-11T03:28:45.752Z,80.00
2024-01-11T03:31:14.554Z,95.50
2024-01-11T03:33:44.798Z,83.40
2024-01-11T03:36:14.172Z,85.27
2024-01-11T03:38:43.486Z,88.10
2024-01-11T03:41:12.668Z,85.30
2024-01-11T03:43:41.469Z,82.27
2024-01-11T03:46:10.106Z,78.47
2024-01-11T03:48:40.271Z,81.50
2024-01-11T03:51:11.047Z,92.87
2024-01-11T03:53:40.106Z,80.03
2024-01-11T03:56:08.896Z,108.03
2024-01-11T03:58:40.776Z,100.97
2024-01-11T04:01:11.752Z,79.03
2024-01-11T04:03:40.649Z,92.83
2024-01-11T04:06:11.073Z,81.73
2024-01-11T04:08:39.823Z,80.57
2024-01-11T04:11:08.673Z,74.27
2024-01-11T04:13:37.466Z,77.57
2024-01-11T04:16:07.783Z,87.00
2024-01-11T04:18:36.849Z,79.90
2024-01-11T04:21:06.040Z,77.90
2024-01-11T04:23:36.384Z,74.30
2024-01-11T04:26:05.514Z,83.53
2024-01-11T04:28:34.168Z,77.67
2024-01-11T04:31:02.832Z,77.97
2024-01-11T04:33:31.558Z,74.97
2024-01-11T04:36:00.538Z,80.07
2024-01-11T04:38:29.293Z,75.87
2024-01-11T04:40:59.438Z,78.63
2024-01-11T04:43:28.151Z,92.27
2024-01-11T04:45:56.897Z,86.83
2024-01-11T04:48:25.925Z,87.67
2024-01-11T04:50:54.655Z,77.77
2024-01-11T04:53:23.335Z,79.40
2024-01-11T04:55:52.021Z,73.77
2024-01-11T04:58:22.042Z,75.47
2024-01-11T05:00:51.370Z,76.00
2024-01-11T05:03:20.140Z,78.13
2024-01-11T05:05:49.275Z,70.07
2024-01-11T05:08:18.357Z,74.40
2024-01-11T05:10:47.133Z,73.57
2024-01-11T05:13:15.794Z,78.53
2024-01-11T05:15:45.920Z,72.87
2024-01-11T05:18:14.904Z,71.87
2024-01-11T05:20:43.875Z,76.87
2024-01-11T05:23:13.013Z,68.67
2024-01-11T05:25:41.794Z,73.17
2024-01-11T05:28:10.536Z,71.23
2024-01-11T05:30:39.428Z,75.83
2024-01-11T05:33:09.768Z,76.07
2024-01-11T05:35:38.576Z,77.40
2024-01-11T05:38:07.299Z,72.10
2024-01-11T05:40:35.955Z,72.73
2024-01-11T05:43:05.168Z,75.20
2024-01-11T05:45:46.043Z,62.70
2024-01-11T05:48:18.490Z,71.53
2024-01-11T05:50:47.592Z,64.50
2024-01-11T05:53:16.207Z,62.07
2024-01-11T05:55:45.366Z,60.50
2024-01-11T05:58:14.128Z,60.93
2024-01-11T06:00:43.481Z,63.43
2024-01-11T06:03:13.957Z,61.87
2024-01-11T06:05:44.145Z,54.57
2024-01-11T06:08:12.993Z,59.97
2024-01-11T06:10:42.864Z,50.37
2024-01-11T06:13:12.224Z,56.77
2024-01-11T06:15:41.030Z,48.03
2024-01-11T06:18:10.042Z,54.80
2024-01-11T06:20:38.882Z,54.47
2024-01-11T06:23:09.230Z,52.17
2024-01-11T06:25:37.897Z,47.47
2024-01-11T06:28:08.423Z,50.53
2024-01-11T06:30:37.191Z,52.47
2024-01-11T06:33:06.600Z,49.30
2024-01-11T06:35:35.954Z,56.00
2024-01-11T06:38:04.948Z,50.23
2024-01-11T06:40:35.221Z,50.57
2024-01-11T06:43:04.123Z,54.07
2024-01-11T06:45:33.171Z,50.03
2024-01-11T06:48:02.354Z,47.23
2024-01-11T06:50:31.375Z,52.83
2024-01-11T06:53:00.483Z,48.97
2024-01-11T06:55:29.532Z,47.40
2024-01-11T06:58:00.510Z,48.70
2024-01-11T07:00:29.525Z,49.60
2024-01-11T07:02:58.438Z,42.50
2024-01-11T07:05:27.314Z,50.77
2024-01-11T07:07:56.338Z,51.43
2024-01-11T07:10:25.050Z,48.73
2024-01-11T07:12:53.801Z,50.70
2024-01-11T07:15:25.009Z,49.33
2024-01-11T07:17:54.978Z,52.93
2024-01-11T07:20:23.852Z,53.57
2024-01-11T07:22:52.553Z,49.90
2024-01-11T07:25:21.117Z,50.10
2024-01-11T07:27:49.892Z,52.07
2024-01-11T07:30:19.765Z,50.20
2024-01-11T07:32:49.935Z,66.10
2024-01-11T07:35:19.525Z,53.77
2024-01-11T07:37:48.282Z,49.53
2024-01-11T07:40:17.917Z,46.53
2024-01-11T07:42:48.424Z,50.33
2024-01-11T07:45:17.327Z,50.67
2024-01-11T07:47:47.050Z,46.37
2024-01-11T07:50:17.530Z,46.80
2024-01-11T07:52:47.003Z,43.00
2024-01-11T07:55:15.664Z,44.73
2024-01-11T07:57:44.296Z,45.47
2024-01-11T08:00:13.222Z,45.00
2024-01-11T08:02:42.168Z,45.23
2024-01-11T08:05:11.484Z,48.13
2024-01-11T08:07:42.176Z,42.77
2024-01-11T08:10:11.551Z,40.80
2024-01-11T08:12:40.347Z,43.77
2024-01-11T08:15:13.811Z,42.30
2024-01-11T08:17:48.536Z,48.53
2024-01-11T08:20:17.787Z,42.47
2024-01-11T08:22:48.452Z,46.73
2024-01-11T08:25:17.220Z,53.20
2024-01-11T08:27:44.789Z,46.43
2024-01-11T08:30:15.718Z,43.17
2024-01-11T08:32:46.682Z,44.23
2024-01-11T08:35:15.649Z,42.77
2024-01-11T08:37:44.365Z,47.13
2024-01-11T08:40:14.926Z,50.30
2024-01-11T08:42:44.078Z,52.80
2024-01-11T08:45:19.567Z,50.07
2024-01-11T08:47:49.035Z,49.30
2024-01-11T08:50:22.606Z,47.50
2024-01-11T08:52:53.202Z,48.43
2024-01-11T08:55:23.320Z,46.23
2024-01-11T08:57:52.302Z,45.33
2024-01-11T09:00:21.722Z,42.77
2024-01-11T09:02:50.854Z,47.93
2024-01-11T09:05:19.709Z,48.77
2024-01-11T09:07:49.753Z,49.23
2024-01-11T09:10:19.666Z,52.97
2024-01-11T09:12:49.687Z,49.07
2024-01-11T09:15:18.556Z,39.07
2024-01-11T09:17:48.241Z,41.70
2024-01-11T09:20:17.896Z,46.50
2024-01-11T09:22:46.875Z,43.57
2024-01-11T09:25:15.622Z,42.93
2024-01-11T09:27:44.270Z,44.10
2024-01-11T09:30:15.308Z,41.80
2024-01-11T09:32:44.387Z,35.73
2024-01-11T09:35:14.959Z,36.10
2024-01-11T09:37:47.591Z,33.63
2024-01-11T09:40:17.359Z,33.23
2024-01-11T09:42:46.045Z,31.60
2024-01-11T09:45:18.445Z,35.87
2024-01-11T09:47:48.502Z,34.47
2024-01-11T09:50:19.673Z,35.37
2024-01-11T09:52:50.112Z,33.67
2024-01-11T09:55:19.160Z,35.57
2024-01-11T09:57:49.601Z,35.40
2024-01-11T10:00:24.873Z,37.73
2024-01-11T10:02:54.357Z,36.13
2024-01-11T10:05:23.365Z,38.53
2024-01-11T10:07:52.048Z,35.83
2024-01-11T10:10:21.185Z,37.00
2024-01-11T10:12:51.053Z,35.57
2024-01-11T10:15:21.257Z,37.50
2024-01-11T10:17:50.889Z,43.47
2024-01-11T10:20:25.520Z,39.40
2024-01-11T10:22:54.598Z,38.80
2024-01-11T10:25:23.394Z,44.07
2024-01-11T10:27:52.001Z,41.40
2024-01-11T10:30:24.057Z,38.40
2024-01-11T10:32:52.832Z,37.63
2024-01-11T10:35:22.926Z,36.43
2024-01-11T10:37:55.246Z,34.23
2024-01-11T10:40:26.582Z,37.00
2024-01-11T10:42:56.788Z,42.28
2024-01-11T10:45:28.340Z,60.87
2024-01-11T10:48:02.692Z,61.17
2024-01-11T10:50:37.206Z,70.43
2024-01-11T10:53:13.727Z,59.50
2024-01-11T10:55:43.938Z,42.85
2024-01-11T10:58:14.959Z,43.97
2024-01-11T11:00:51.610Z,46.93
2024-01-11T11:03:25.485Z,46.87
2024-01-11T11:05:57.220Z,55.90
2024-01-11T11:08:28.289Z,55.13
2024-01-11T11:10:59.391Z,71.30
2024-01-11T11:13:29.132Z,61.73
2024-01-11T11:16:01.991Z,59.53
2024-01-11T11:18:32.327Z,51.70
2024-01-11T11:21:01.490Z,54.53
2024-01-11T11:23:30.499Z,48.57
2024-01-11T11:26:00.045Z,50.57
2024-01-11T11:28:29.149Z,47.47
2024-01-11T11:31:04.816Z,36.33
2024-01-11T11:33:34.176Z,49.57
2024-01-11T11:36:05.377Z,52.07
2024-01-11T11:38:34.590Z,54.47
2024-01-11T11:41:04.096Z,53.80
2024-01-11T11:43:34.685Z,44.43
2024-01-11T11:46:09.276Z,42.87
2024-01-11T11:48:56.086Z,43.27
2024-01-11T11:51:28.707Z,49.13
2024-01-11T11:53:58.383Z,45.33
2024-01-11T11:56:27.529Z,49.47
2024-01-11T11:58:56.866Z,48.70
2024-01-11T12:01:27.457Z,47.50
2024-01-11T12:03:56.100Z,47.33
2024-01-11T12:06:26.810Z,47.97
2024-01-11T12:08:58.056Z,51.40
2024-01-11T12:11:27.987Z,54.50
2024-01-11T12:13:59.307Z,51.93
2024-01-11T12:16:30.021Z,52.60
2024-01-11T12:18:58.873Z,51.87
2024-01-11T12:21:28.528Z,47.50
2024-01-11T12:23:57.914Z,51.23
2024-01-11T12:26:26.641Z,48.03
2024-01-11T12:28:55.705Z,57.17
2024-01-11T12:31:24.954Z,48.87
2024-01-11T12:33:56.366Z,47.83
2024-01-11T12:36:26.866Z,52.80
2024-01-11T12:38:55.778Z,55.10
2024-01-11T12:41:25.499Z,54.77
2024-01-11T12:43:55.234Z,56.33
2024-01-11T12:46:24.226Z,51.40
2024-01-11T12:48:55.095Z,48.20
2024-01-11T12:51:24.112Z,59.20
2024-01-11T12:53:55.513Z,53.83
2024-01-11T12:56:24.847Z,55.73
2024-01-11T12:58:53.911Z,53.63
2024-01-11T13:01:23.098Z,54.30
2024-01-11T13:03:53.135Z,49.30
2024-01-11T13:06:23.518Z,49.73
2024-01-11T13:08:52.510Z,52.63
2024-01-11T13:11:22.714Z,50.77
2024-01-11T13:14:03.796Z,44.47
2024-01-11T13:16:32.872Z,49.53
2024-01-11T13:19:02.249Z,44.13
2024-01-11T13:21:32.936Z,45.13
2024-01-11T13:24:01.554Z,47.83
2024-01-11T13:26:30.447Z,47.03
2024-01-11T13:28:59.334Z,39.00
2024-01-11T13:31:27.991Z,41.00
2024-01-11T13:33:58.053Z,40.33
2024-01-11T13:36:27.636Z,44.93
2024-01-11T13:38:57.907Z,42.07
2024-01-11T13:41:26.990Z,47.53
2024-01-11T13:43:55.797Z,42.80
2024-01-11T13:46:24.823Z,44.87
2024-01-11T13:48:54.495Z,43.60
2024-01-11T13:51:23.553Z,43.97
2024-01-11T13:53:52.876Z,63.57
2024-01-11T13:56:24.370Z,49.30
2024-01-11T13:58:56.643Z,54.27
2024-01-11T14:01:25.506Z,57.90
2024-01-11T14:03:54.531Z,53.27
2024-01-11T14:06:32.618Z,61.43
2024-01-11T14:09:01.406Z,64.60
2024-01-11T14:11:31.783Z,54.43
2024-01-11T14:14:00.735Z,50.10
2024-01-11T14:16:33.789Z,46.37
2024-01-11T14:19:02.867Z,48.47
2024-01-11T14:21:31.829Z,50.00
2024-01-11T14:24:00.697Z,48.87
2024-01-11T14:26:30.879Z,49.20
2024-01-11T14:28:59.625Z,47.53
2024-01-11T14:31:28.494Z,45.73
2024-01-11T14:33:57.346Z,42.90
2024-01-11T14:36:26.284Z,43.10
2024-01-11T14:38:57.030Z,46.37
2024-01-11T14:41:25.829Z,41.13
2024-01-11T14:43:55.926Z,40.73
2024-01-11T14:46:24.752Z,37.13
2024-01-11T14:48:53.462Z,38.87
2024-01-11T14:51:22.145Z,49.73
2024-01-11T14:53:50.842Z,46.23
2024-01-11T14:56:19.627Z,42.90
2024-01-11T14:58:48.352Z,46.10
2024-01-11T15:01:19.015Z,48.60
2024-01-11T15:03:47.708Z,63.17
2024-01-11T15:06:16.567Z,98.93
2024-01-11T15:08:45.465Z,73.57
2024-01-11T15:11:14.167Z,88.67
2024-01-11T15:13:43.348Z,76.27
2024-01-11T15:16:12.189Z,71.87
2024-01-11T15:18:42.460Z,62.67
2024-01-11T15:27:10.530Z,45.87
2024-01-11T15:33:34.053Z,42.23
2024-01-11T15:36:08.026Z,36.60
2024-01-11T15:42:20.696Z,38.37
2024-01-11T15:44:49.851Z,35.53
2024-01-11T15:47:31.330Z,34.57
2024-01-11T15:50:00.531Z,31.30
2024-01-11T15:55:18.311Z,34.93
2024-01-11T15:57:51.475Z,30.40
2024-01-11T16:00:25.800Z,27.73
2024-01-11T16:03:03.118Z,30.67
2024-01-11T16:05:47.543Z,31.97
2024-01-11T16:08:37.501Z,27.57
2024-01-11T16:12:05.625Z,27.37
2024-01-11T16:21:36.629Z,26.80
2024-01-11T16:27:51.664Z,25.20
2024-01-11T16:34:39.114Z,24.57
2024-01-11T16:41:20.034Z,27.50
2024-01-11T16:43:56.515Z,24.73
2024-01-11T16:46:28.003Z,23.10
2024-01-11T16:48:56.859Z,23.53
2024-01-11T16:51:25.638Z,23.63
2024-01-11T16:54:03.771Z,21.87
2024-01-11T16:56:40.674Z,22.50
2024-01-11T16:59:29.271Z,19.07
2024-01-11T17:02:02.430Z,21.03
2024-01-11T17:04:34.942Z,20.47
2024-01-11T17:07:04.901Z,22.87
2024-01-11T17:09:49.018Z,22.73
2024-01-11T17:12:23.421Z,21.77
2024-01-11T17:15:06.132Z,22.70
2024-01-11T17:17:54.736Z,23.80
2024-01-11T17:20:29.222Z,22.47
2024-01-11T17:23:10.530Z,22.37
2024-01-11T17:25:42.193Z,22.63
2024-01-11T17:28:13.958Z,21.43
2024-01-11T17:30:45.558Z,19.57
2024-01-11T17:33:27.804Z,25.87
2024-01-11T17:35:57.792Z,22.40
2024-01-11T17:38:29.794Z,23.10
2024-01-11T17:41:01.209Z,21.00
2024-01-11T17:44:27.312Z,22.77
2024-01-11T17:47:13.982Z,23.03
2024-01-11T17:50:12.686Z,18.33
2024-01-11T17:56:05.876Z,19.57
2024-01-11T17:58:35.855Z,17.23
2024-01-11T18:01:21.828Z,15.73
2024-01-11T18:03:52.465Z,13.57
2024-01-11T18:06:22.878Z,14.73
2024-01-11T18:08:51.656Z,18.40
2024-01-11T18:11:20.453Z,23.77
2024-01-11T18:13:49.727Z,28.17
2024-01-11T18:16:18.457Z,21.07
2024-01-11T18:18:49.730Z,22.53
2024-01-11T18:21:21.019Z,14.37
2024-01-11T18:23:50.202Z,15.13
2024-01-11T18:26:19.002Z,17.27
2024-01-11T18:28:50.634Z,19.80
2024-01-11T18:31:19.909Z,15.67
2024-01-11T18:33:51.389Z,12.37
2024-01-11T18:36:25.018Z,11.43
2024-01-11T18:39:19.407Z,12.50
2024-01-11T18:41:54.219Z,13.77
2024-01-11T18:44:25.538Z,13.30
2024-01-11T18:46:54.422Z,13.90
2024-01-11T18:49:23.100Z,12.53
2024-01-11T18:51:54.494Z,13.40
2024-01-11T18:54:23.159Z,7.43
2024-01-11T18:56:51.873Z,6.57
2024-01-11T18:59:20.769Z,6.27
2024-01-11T19:01:50.238Z,10.13
2024-01-11T19:04:18.996Z,5.20
2024-01-11T19:06:51.149Z,5.97
2024-01-11T19:09:21.497Z,9.80
2024-01-11T19:11:51.803Z,11.23
2024-01-11T19:14:21.040Z,9.00
2024-01-11T19:16:49.989Z,9.03
2024-01-11T19:19:18.777Z,10.50
2024-01-11T19:21:47.652Z,9.83
2024-01-11T19:24:16.384Z,10.77
2024-01-11T19:26:50.976Z,11.03
2024-01-11T19:29:19.963Z,11.43
2024-01-11T19:31:49.580Z,10.90
2024-01-11T19:34:18.494Z,8.40
2024-01-11T19:36:47.575Z,11.50
2024-01-11T19:39:16.387Z,8.73
2024-01-11T19:41:48.113Z,11.97
2024-01-11T19:44:16.815Z,13.90
2024-01-11T19:46:45.767Z,10.60
2024-01-11T19:49:14.660Z,12.07
2024-01-11T19:51:43.374Z,13.43
2024-01-11T19:54:13.907Z,8.43
2024-01-11T19:56:46.755Z,12.53
2024-01-11T19:59:18.392Z,12.47
2024-01-11T20:01:47.649Z,14.50
2024-01-11T20:04:18.991Z,11.37
2024-01-11T20:06:48.078Z,10.90
2024-01-11T20:09:19.156Z,12.37
2024-01-11T20:11:47.873Z,10.13
2024-01-11T20:14:18.130Z,12.53
2024-01-11T20:16:47.384Z,10.83
2024-01-11T20:19:16.278Z,13.17
2024-01-11T20:21:59.009Z,14.10
2024-01-11T20:24:27.896Z,11.40
2024-01-11T20:26:59.192Z,9.43
2024-01-11T20:29:29.565Z,12.10
2024-01-11T20:31:58.455Z,10.70
2024-01-11T20:34:30.152Z,9.50
2024-01-11T20:37:00.094Z,11.63
2024-01-11T20:39:28.840Z,12.70
2024-01-11T20:41:58.703Z,13.33
2024-01-11T20:44:31.728Z,12.43
2024-01-11T20:47:00.562Z,10.27
2024-01-11T20:49:31.289Z,8.30
2024-01-11T20:52:11.957Z,13.73
2024-01-11T20:54:40.919Z,13.33
2024-01-11T20:57:19.303Z,10.30
2024-01-11T20:59:51.998Z,11.07
2024-01-11T21:02:21.522Z,10.70
2024-01-11T21:04:51.822Z,10.90
2024-01-11T21:07:20.808Z,12.17
2024-01-11T21:09:50.292Z,10.50
2024-01-11T21:12:19.166Z,11.37
2024-01-11T21:14:49.563Z,11.67
2024-01-11T21:17:19.574Z,13.23
2024-01-11T21:19:49.978Z,11.30
2024-01-11T21:22:19.481Z,8.97
2024-01-11T21:24:50.214Z,13.97
2024-01-11T21:27:19.251Z,14.30
2024-01-11T21:29:52.077Z,15.33
2024-01-11T21:32:24.069Z,17.27
2024-01-11T21:34:53.174Z,14.33
2024-01-11T21:37:22.445Z,11.70
2024-01-11T21:39:51.584Z,15.03
2024-01-11T21:42:26.548Z,13.97
2024-01-11T21:44:57.612Z,17.23
2024-01-11T21:47:26.963Z,12.50
2024-01-11T21:49:56.341Z,12.10
2024-01-11T21:52:26.427Z,11.73
2024-01-11T21:55:00.530Z,12.77
2024-01-11T21:57:29.944Z,13.83
2024-01-11T22:00:00.785Z,14.33
2024-01-11T22:02:34.376Z,17.70
2024-01-11T22:05:12.918Z,14.97
2024-01-11T22:07:49.101Z,12.77
2024-01-11T22:10:21.910Z,16.17
2024-01-11T22:16:25.653Z,15.43
2024-01-11T22:19:01.445Z,13.93
2024-01-11T22:21:34.623Z,19.33
2024-01-11T22:24:05.938Z,15.17
2024-01-11T22:26:35.032Z,20.50
2024-01-11T22:29:04.345Z,16.23
2024-01-11T22:31:38.672Z,17.67
2024-01-11T22:34:10.085Z,15.50
2024-01-11T22:36:43.193Z,15.97
2024-01-11T22:39:13.483Z,22.60
2024-01-11T22:41:43.092Z,15.70
2024-01-11T22:44:13.339Z,16.03
2024-01-11T22:46:48.431Z,18.10
2024-01-11T22:49:18.095Z,17.20
2024-01-11T22:51:55.035Z,20.00
2024-01-11T22:54:32.409Z,24.20
2024-01-11T22:57:04.808Z,21.37
2024-01-11T22:59:39.648Z,18.33
2024-01-11T23:02:14.582Z,14.17
2024-01-11T23:04:43.800Z,13.63
2024-01-11T23:07:13.032Z,15.23
2024-01-11T23:09:44.973Z,16.87
2024-01-11T23:12:14.446Z,12.97
2024-01-11T23:14:47.137Z,17.27
2024-01-11T23:17:20.426Z,14.97
2024-01-11T23:19:49.630Z,13.60
2024-01-11T23:22:18.684Z,13.65
2024-01-11T23:24:47.764Z,11.87
2024-01-11T23:27:16.640Z,12.10
2024-01-11T23:29:47.326Z,10.40
2024-01-11T23:32:17.958Z,11.53
2024-01-11T23:34:47.011Z,16.23
2024-01-11T23:37:17.898Z,17.88
2024-01-11T23:39:46.704Z,13.83
2024-01-11T23:42:15.644Z,17.75
2024-01-11T23:44:44.692Z,17.80
2024-01-11T23:47:13.467Z,19.87
2024-01-11T23:49:43.986Z,12.10
2024-01-11T23:52:12.889Z,13.00
2024-01-11T23:54:41.615Z,11.85
2024-01-11T23:57:10.306Z,12.23
2024-01-11T23:59:39.002Z,10.43
